Time;durP1;ratioP1;P1;durP2;ratioP2;P2;SDS_P1;SDS_P2;PMS_P1;PMS_P2;Temp;Humidity;BMP_temperature;BMP_pressure;BME280_temperature;BME280_humidity;BME280_pressure;Samples;Min_cycle;Max_cycle;Signal;HPM_P1;HPM_P2
2024/01/16 00:00:09;;;;;;;2.05;1.00;;;;;;;1.36;100.00;100047.28;6278424;28;20053;-76
2024/01/16 00:03:10;;;;;;;2.25;1.33;;;;;;;1.35;100.00;100043.00;6278218;28;20053;-76
2024/01/16 00:06:12;;;;;;;1.33;0.60;;;;;;;1.30;100.00;100040.53;6278137;28;20073;-76
2024/01/16 00:09:14;;;;;;;6.72;0.88;;;;;;;1.43;100.00;100054.84;6277932;28;20045;-76
2024/01/16 00:12:16;;;;;;;7.90;1.55;;;;;;;1.37;100.00;100065.38;6278085;28;20400;-77
2024/01/16 00:15:18;;;;;;;0.90;0.88;;;;;;;1.32;100.00;100056.91;6278252;28;20048;-75
2024/01/16 00:18:19;;;;;;;4.05;1.05;;;;;;;1.29;100.00;100058.72;6277204;28;20056;-76
2024/01/16 00:21:21;;;;;;;1.00;0.90;;;;;;;1.30;100.00;100066.44;6278089;28;20063;-75
2024/01/16 00:24:23;;;;;;;0.98;0.70;;;;;;;1.37;100.00;100067.13;6277936;28;20064;-75
2024/01/16 00:27:24;;;;;;;2.05;0.70;;;;;;;1.35;100.00;100063.72;6277453;28;20056;-75
2024/01/16 00:30:26;;;;;;;1.77;0.80;;;;;;;1.40;100.00;100054.94;6275607;28;20053;-75
2024/01/16 00:33:28;;;;;;;2.42;0.70;;;;;;;1.44;100.00;100074.69;6276898;28;20047;-76
2024/01/16 00:36:29;;;;;;;5.32;0.82;;;;;;;1.45;100.00;100073.81;6276865;28;20055;-75
2024/01/16 00:39:32;;;;;;;0.88;0.55;;;;;;;1.43;100.00;100088.50;6277197;28;20128;-75
2024/01/16 00:42:34;;;;;;;0.52;0.43;;;;;;;1.45;100.00;100073.81;6277460;28;20053;-75
2024/01/16 00:45:35;;;;;;;0.40;0.40;;;;;;;1.37;100.00;100082.66;6277353;28;20111;-75
2024/01/16 00:48:36;;;;;;;0.95;0.45;;;;;;;1.43;100.00;100082.50;6277507;28;20048;-75
2024/01/16 00:51:38;;;;;;;0.95;0.57;;;;;;;1.27;100.00;100095.84;6277629;28;20053;-76
2024/01/16 00:54:41;;;;;;;6.07;0.80;;;;;;;1.32;100.00;100111.25;6277115;28;20045;-76
2024/01/16 00:57:43;;;;;;;2.03;0.63;;;;;;;1.24;100.00;100098.50;6276914;28;20053;-75
2024/01/16 01:00:44;;;;;;;3.17;0.77;;;;;;;1.32;100.00;100108.66;6277421;28;20052;-76
2024/01/16 01:03:45;;;;;;;0.43;0.43;;;;;;;1.18;100.00;100110.72;6276944;28;20056;-76
2024/01/16 01:06:46;;;;;;;1.45;1.35;;;;;;;1.29;100.00;100124.28;6276555;28;20404;-76
2024/01/16 01:09:49;;;;;;;1.30;0.70;;;;;;;1.25;100.00;100130.41;6276937;28;20045;-76
2024/01/16 01:12:51;;;;;;;1.38;0.63;;;;;;;1.33;100.00;100156.09;6277002;28;20059;-75
2024/01/16 01:15:52;;;;;;;1.45;0.88;;;;;;;1.31;100.00;100138.00;6276288;28;20131;-76
2024/01/16 01:18:54;;;;;;;0.45;0.45;;;;;;;1.33;100.00;100135.41;6276802;28;20438;-75
2024/01/16 01:21:55;;;;;;;0.47;0.47;;;;;;;1.32;100.00;100154.38;6276812;28;20049;-75
2024/01/16 01:24:58;;;;;;;0.85;0.57;;;;;;;1.30;100.00;100148.41;6276384;28;20389;-76
2024/01/16 01:28:00;;;;;;;0.85;0.70;;;;;;;1.35;100.00;100151.72;6276101;28;20060;-76
2024/01/16 01:31:01;;;;;;;2.08;0.57;;;;;;;1.34;100.00;100142.28;6276404;28;20052;-76
2024/01/16 01:34:02;;;;;;;2.00;0.70;;;;;;;1.32;100.00;100150.09;6276301;28;20045;-76
2024/01/16 01:37:04;;;;;;;0.93;0.60;;;;;;;1.22;100.00;100144.25;6275316;28;20048;-76
2024/01/16 01:40:08;;;;;;;3.75;0.77;;;;;;;1.15;100.00;100149.66;6276357;28;20445;-76
2024/01/16 01:43:20;;;;;;;0.70;0.60;;;;;;;1.00;100.00;100148.28;6275992;28;20354;-76
2024/01/16 01:46:22;;;;;;;0.57;0.55;;;;;;;1.07;100.00;100149.81;6275815;28;20049;-76
2024/01/16 01:49:25;;;;;;;1.27;0.70;;;;;;;0.99;100.00;100147.41;6273438;28;20441;-76
2024/01/16 01:52:27;;;;;;;3.63;0.57;;;;;;;0.90;100.00;100159.72;6273623;28;20048;-76
2024/01/16 01:55:30;;;;;;;1.75;0.50;;;;;;;0.82;100.00;100169.38;6275046;28;20130;-76
2024/01/16 01:58:31;;;;;;;0.95;0.77;;;;;;;0.93;100.00;100176.00;6274073;28;20056;-76
2024/01/16 02:01:35;;;;;;;4.47;0.52;;;;;;;0.67;100.00;100178.34;6275817;28;20049;-76
2024/01/16 02:04:37;;;;;;;0.43;0.43;;;;;;;0.69;100.00;100180.00;6275865;28;20052;-75
2024/01/16 02:07:39;;;;;;;2.47;0.55;;;;;;;0.62;100.00;100178.44;6274717;28;20048;-75
2024/01/16 02:10:46;;;;;;;3.60;0.70;;;;;;;0.83;100.00;100178.84;6276006;28;20476;-75
2024/01/16 02:13:48;;;;;;;2.05;0.90;;;;;;;0.66;100.00;100189.56;6275426;28;20190;-75
2024/01/16 02:16:49;;;;;;;2.05;0.90;;;;;;;0.64;100.00;100192.19;6275362;28;20056;-76
2024/01/16 02:19:51;;;;;;;0.82;0.50;;;;;;;0.67;100.00;100181.75;6275758;28;20052;-75
2024/01/16 02:22:56;;;;;;;2.85;0.57;;;;;;;0.56;100.00;100177.72;6275152;28;20357;-76
2024/01/16 02:25:58;;;;;;;0.90;0.70;;;;;;;0.62;100.00;100198.28;6274988;28;20342;-75
2024/01/16 02:29:01;;;;;;;6.75;0.95;;;;;;;0.64;100.00;100204.28;6275287;28;20052;-75
2024/01/16 02:32:03;;;;;;;2.75;0.68;;;;;;;0.57;100.00;100202.69;6274932;28;20045;-76
2024/01/16 02:35:05;;;;;;;2.10;0.70;;;;;;;0.63;100.00;100213.75;6274852;28;20092;-76
2024/01/16 02:38:06;;;;;;;2.25;0.73;;;;;;;0.61;100.00;100222.44;6274458;28;20044;-75
2024/01/16 02:41:09;;;;;;;4.32;1.15;;;;;;;0.63;100.00;100223.22;6274833;28;20384;-76
2024/01/16 02:44:11;;;;;;;2.80;1.05;;;;;;;0.58;100.00;100219.91;6275091;28;20052;-75
2024/01/16 02:47:12;;;;;;;3.30;1.50;;;;;;;0.74;100.00;100221.28;6274703;28;20057;-76
2024/01/16 02:50:14;;;;;;;4.57;1.35;;;;;;;0.73;100.00;100214.41;6275240;28;20048;-75
2024/01/16 02:53:15;;;;;;;7.32;1.00;;;;;;;0.67;100.00;100206.78;6274776;28;20048;-76
2024/01/16 02:56:18;;;;;;;5.47;1.52;;;;;;;0.60;100.00;100220.75;6274469;28;20056;-76
2024/01/16 02:59:19;;;;;;;4.10;1.55;;;;;;;0.59;100.00;100225.06;6290007;22;20041;-74
2024/01/16 03:02:20;;;;;;;1.95;0.88;;;;;;;0.57;100.00;100224.22;6274541;28;20045;-74
2024/01/16 03:05:22;;;;;;;1.67;0.80;;;;;;;0.48;100.00;100242.50;6274530;28;20056;-74
2024/01/16 03:08:23;;;;;;;2.20;0.68;;;;;;;0.43;100.00;100236.59;6274747;28;20056;-73
2024/01/16 03:11:26;;;;;;;2.90;0.88;;;;;;;0.48;100.00;100227.84;6274959;28;20048;-74
2024/01/16 03:14:28;;;;;;;0.73;0.63;;;;;;;0.50;100.00;100233.84;6274349;28;20045;-73
2024/01/16 03:17:29;;;;;;;1.35;0.98;;;;;;;0.53;100.00;100251.03;6271156;28;20130;-74
2024/01/16 03:20:30;;;;;;;2.00;1.35;;;;;;;0.40;100.00;100253.00;6274426;28;20440;-74
2024/01/16 03:23:32;;;;;;;9.05;1.50;;;;;;;0.62;100.00;100258.59;6272556;28;20049;-73
2024/01/16 03:26:34;;;;;;;3.03;1.60;;;;;;;0.54;100.00;100244.97;6274129;28;20048;-74
2024/01/16 03:29:36;;;;;;;2.53;1.80;;;;;;;0.58;100.00;100256.09;6274360;28;20045;-74
2024/01/16 03:32:37;;;;;;;3.95;1.92;;;;;;;0.44;100.00;100253.78;6274382;28;20460;-74
2024/01/16 03:35:39;;;;;;;10.52;2.60;;;;;;;0.62;100.00;100255.16;6273897;28;20369;-74
2024/01/16 03:38:40;;;;;;;3.55;1.67;;;;;;;0.53;100.00;100270.84;6273209;28;20049;-74
2024/01/16 03:41:43;;;;;;;0.95;0.88;;;;;;;0.57;100.00;100263.00;6274338;28;20048;-74
2024/01/16 03:44:44;;;;;;;5.63;2.05;;;;;;;0.47;100.00;100266.66;6274175;28;20048;-73
2024/01/16 03:47:46;;;;;;;4.25;1.35;;;;;;;0.34;100.00;100266.03;6274122;28;20045;-74
2024/01/16 03:50:47;;;;;;;10.25;1.77;;;;;;;0.28;100.00;100273.06;6274013;28;20049;-73
2024/01/16 03:53:48;;;;;;;2.80;1.35;;;;;;;0.41;100.00;100274.50;6274842;28;20413;-74
2024/01/16 03:56:51;;;;;;;10.50;1.30;;;;;;;0.46;100.00;100276.16;6278317;28;20287;-74
2024/01/16 03:59:53;;;;;;;11.82;2.05;;;;;;;0.30;100.00;100274.72;6278499;28;20139;-73
2024/01/16 04:02:54;;;;;;;2.88;1.70;;;;;;;0.43;100.00;100280.53;6278050;28;20059;-74
2024/01/16 04:05:55;;;;;;;6.65;1.55;;;;;;;0.35;100.00;100272.06;6277799;28;20047;-74
2024/01/16 04:08:56;;;;;;;3.58;1.45;;;;;;;0.24;100.00;100270.53;6277992;28;20076;-73
2024/01/16 04:11:59;;;;;;;5.53;1.67;;;;;;;0.17;100.00;100270.66;6270176;28;20057;-74
2024/01/16 04:15:00;;;;;;;1.65;1.00;;;;;;;0.39;100.00;100266.81;6278160;28;20041;-74
2024/01/16 04:18:03;;;;;;;4.10;1.77;;;;;;;0.33;100.00;100271.25;6277686;28;20049;-73
2024/01/16 04:21:04;;;;;;;2.30;0.95;;;;;;;0.30;100.00;100271.28;6278142;28;20445;-74
2024/01/16 04:24:05;;;;;;;4.40;1.08;;;;;;;0.48;100.00;100266.63;6277555;28;20058;-74
2024/01/16 04:27:08;;;;;;;6.57;1.33;;;;;;;0.24;100.00;100275.72;6277489;28;20373;-74
2024/01/16 04:30:10;;;;;;;2.03;1.02;;;;;;;0.38;100.00;100274.59;6268073;28;20132;-73
2024/01/16 04:33:11;;;;;;;7.47;0.88;;;;;;;0.36;100.00;100260.84;6268628;28;20049;-73
2024/01/16 04:36:13;;;;;;;1.23;0.95;;;;;;;0.25;100.00;100276.56;6268803;28;20045;-74
2024/01/16 04:39:14;;;;;;;4.07;0.82;;;;;;;0.16;100.00;100277.56;6268773;28;20050;-79
2024/01/16 04:42:18;;;;;;;2.25;1.38;;;;;;;0.17;100.00;100274.09;6266271;28;20056;-74
2024/01/16 04:45:19;;;;;;;6.55;1.77;;;;;;;0.39;100.00;100268.53;6252947;28;20442;-74
2024/01/16 04:48:21;;;;;;;1.83;0.90;;;;;;;0.14;100.00;100273.34;6252705;28;20049;-74
2024/01/16 04:51:22;;;;;;;4.43;2.00;;;;;;;0.17;100.00;100271.53;6253050;28;20430;-74
2024/01/16 04:54:23;;;;;;;1.60;0.73;;;;;;;0.21;100.00;100280.91;6267830;28;20361;-74
2024/01/16 04:57:26;;;;;;;2.55;0.90;;;;;;;0.20;100.00;100276.63;6267993;28;20103;-73
2024/01/16 05:00:28;;;;;;;3.80;1.48;;;;;;;0.09;100.00;100275.13;6253684;28;20046;-74
2024/01/16 05:03:29;;;;;;;1.45;0.98;;;;;;;0.10;100.00;100288.03;6252083;28;20046;-74
2024/01/16 05:06:31;;;;;;;2.30;0.95;;;;;;;0.24;100.00;100280.03;6258615;28;20045;-74
2024/01/16 05:09:32;;;;;;;6.13;1.45;;;;;;;0.35;100.00;100282.41;6263215;28;20442;-74
2024/01/16 05:12:35;;;;;;;4.93;1.23;;;;;;;0.34;100.00;100284.13;6264629;28;20049;-74
2024/01/16 05:15:36;;;;;;;6.13;1.17;;;;;;;0.39;100.00;100279.72;6251361;28;20041;-74
2024/01/16 05:18:37;;;;;;;4.43;1.10;;;;;;;0.49;100.00;100276.06;6271150;28;20045;-74
2024/01/16 05:21:41;;;;;;;4.43;1.30;;;;;;;0.36;100.00;100276.34;6276977;28;20053;-74
2024/01/16 05:24:42;;;;;;;12.63;1.40;;;;;;;0.49;100.00;100288.16;6276537;28;20072;-74
2024/01/16 05:27:45;;;;;;;3.88;1.17;;;;;;;0.40;100.00;100278.00;6276242;28;20052;-74
2024/01/16 05:30:46;;;;;;;2.13;1.02;;;;;;;0.31;100.00;100270.41;6276674;28;20056;-73
2024/01/16 05:33:48;;;;;;;2.30;1.25;;;;;;;0.31;100.00;100279.00;6276505;28;20421;-74
2024/01/16 05:36:49;;;;;;;6.97;0.95;;;;;;;0.38;100.00;100285.78;6275462;28;20052;-74
2024/01/16 05:39:51;;;;;;;6.88;1.45;;;;;;;0.46;100.00;100277.88;6265064;28;20421;-74
2024/01/16 05:42:53;;;;;;;5.28;1.15;;;;;;;0.40;100.00;100276.25;6263016;28;20048;-74
2024/01/16 05:45:55;;;;;;;7.07;1.20;;;;;;;0.45;100.00;100278.75;6262543;28;20045;-74
2024/01/16 05:48:56;;;;;;;2.55;0.95;;;;;;;0.40;100.00;100276.25;6263483;28;20045;-73
2024/01/16 05:51:57;;;;;;;7.38;1.55;;;;;;;0.29;100.00;100279.94;6262712;28;20322;-74
2024/01/16 05:54:59;;;;;;;6.30;1.10;;;;;;;0.37;100.00;100272.91;6263796;28;20487;-79
2024/01/16 05:58:02;;;;;;;2.05;1.10;;;;;;;0.37;100.00;100276.34;6261711;28;20045;-74
2024/01/16 06:01:03;;;;;;;2.42;0.88;;;;;;;0.46;100.00;100275.31;6259218;28;20053;-74
2024/01/16 06:04:05;;;;;;;10.82;1.80;;;;;;;0.41;100.00;100279.69;6275357;28;20060;-74
2024/01/16 06:07:07;;;;;;;4.35;1.58;;;;;;;0.37;100.00;100278.06;6275368;28;20052;-74
2024/01/16 06:10:10;;;;;;;2.47;1.38;;;;;;;0.36;100.00;100279.78;6275761;28;20052;-74
2024/01/16 06:13:12;;;;;;;8.52;1.85;;;;;;;0.50;100.00;100280.38;6275370;28;20049;-74
2024/01/16 06:16:13;;;;;;;3.53;1.52;;;;;;;0.33;100.00;100269.50;6274485;28;20049;-74
2024/01/16 06:19:15;;;;;;;10.80;1.63;;;;;;;0.48;100.00;100274.38;6275431;28;20056;-74
2024/01/16 06:22:17;;;;;;;2.67;1.13;;;;;;;0.52;100.00;100270.00;6274737;28;20437;-73
2024/01/16 06:25:18;;;;;;;14.90;2.15;;;;;;;0.25;100.00;100274.81;6261650;28;20048;-73
2024/01/16 06:28:21;;;;;;;11.55;2.13;;;;;;;0.33;100.00;100274.69;6262841;28;20068;-74
2024/01/16 06:31:23;;;;;;;8.73;2.28;;;;;;;0.45;100.00;100265.81;6267041;28;20430;-73
2024/01/16 06:34:24;;;;;;;4.68;1.67;;;;;;;0.55;100.00;100269.94;6271155;28;20041;-74
2024/01/16 06:37:26;;;;;;;10.02;2.47;;;;;;;0.53;100.00;100263.09;6269144;28;20048;-73
2024/01/16 06:40:27;;;;;;;3.42;1.50;;;;;;;0.58;100.00;100274.19;6264329;28;20056;-73
2024/01/16 06:43:30;;;;;;;4.97;1.95;;;;;;;0.60;100.00;100260.38;6254960;28;20049;-73
2024/01/16 06:46:31;;;;;;;3.22;1.67;;;;;;;0.38;100.00;100270.28;6250136;28;20045;-73
2024/01/16 06:49:32;;;;;;;3.95;1.23;;;;;;;0.62;100.00;100258.59;6250463;28;20053;-74
2024/01/16 06:52:34;;;;;;;6.10;1.90;;;;;;;0.60;100.00;100262.09;6259216;28;20052;-73
2024/01/16 06:55:35;;;;;;;4.20;1.70;;;;;;;0.61;100.00;100263.81;6274598;28;20053;-74
2024/01/16 06:58:38;;;;;;;11.45;1.88;;;;;;;0.47;100.00;100271.84;6274659;28;20052;-73
2024/01/16 07:01:39;;;;;;;7.30;2.45;;;;;;;0.43;100.00;100271.03;6274996;28;20456;-73
2024/01/16 07:04:40;;;;;;;2.55;1.33;;;;;;;0.61;100.00;100277.56;6274744;28;20049;-73
2024/01/16 07:07:42;;;;;;;6.88;2.03;;;;;;;0.53;100.00;100279.44;6259836;28;20361;-74
2024/01/16 07:10:43;;;;;;;19.55;3.45;;;;;;;0.49;100.00;100285.56;6264926;28;20080;-74
2024/01/16 07:13:46;;;;;;;4.45;1.50;;;;;;;0.53;100.00;100289.78;6274854;28;20049;-73
2024/01/16 07:16:47;;;;;;;4.05;1.63;;;;;;;0.56;100.00;100282.00;6273990;28;20045;-72
2024/01/16 07:19:49;;;;;;;9.23;2.08;;;;;;;0.55;100.00;100290.63;6274993;28;20064;-80
2024/01/16 07:22:51;;;;;;;9.10;2.63;;;;;;;0.57;100.00;100294.03;6274684;28;20088;-73
2024/01/16 07:25:53;;;;;;;7.43;1.38;;;;;;;0.64;100.00;100294.78;6274286;28;20052;-74
2024/01/16 07:28:55;;;;;;;5.82;1.50;;;;;;;0.56;100.00;100299.25;6277237;28;20048;-74
2024/01/16 07:31:56;;;;;;;9.38;2.20;;;;;;;0.51;100.00;100301.91;6279336;28;20597;-73
2024/01/16 07:34:58;;;;;;;6.40;1.83;;;;;;;0.55;100.00;100303.56;6279719;28;20045;-73
2024/01/16 07:37:59;;;;;;;7.47;1.73;;;;;;;0.66;100.00;100301.59;6278322;28;20056;-73
2024/01/16 07:41:01;;;;;;;7.38;1.80;;;;;;;0.59;100.00;100301.75;6279449;28;20060;-73
2024/01/16 07:44:03;;;;;;;9.38;1.88;;;;;;;0.62;100.00;100307.72;6278729;28;20048;-74
2024/01/16 07:47:05;;;;;;;2.65;1.42;;;;;;;0.60;100.00;100312.06;6278470;28;20444;-73
2024/01/16 07:50:07;;;;;;;6.68;2.20;;;;;;;0.47;100.00;100305.44;6278898;28;20331;-72
2024/01/16 07:53:09;;;;;;;4.88;2.10;;;;;;;0.61;100.00;100305.16;6270802;28;20045;-73
2024/01/16 07:56:11;;;;;;;3.05;1.73;;;;;;;0.54;100.00;100300.97;6269510;28;20437;-74
2024/01/16 07:59:13;;;;;;;9.77;1.95;;;;;;;0.59;100.00;100304.31;6277185;28;20190;-71
2024/01/16 08:02:15;;;;;;;6.05;2.40;;;;;;;0.53;100.00;100307.88;6278279;28;20076;-72
2024/01/16 08:05:16;;;;;;;13.00;2.70;;;;;;;0.59;100.00;100310.38;6278313;28;20449;-72
2024/01/16 08:08:18;;;;;;;4.95;2.25;;;;;;;0.63;100.00;100312.00;6276622;28;20056;-72
2024/01/16 08:11:20;;;;;;;4.40;2.33;;;;;;;0.63;100.00;100316.31;6277397;28;20057;-73
2024/01/16 08:14:22;;;;;;;7.78;2.88;;;;;;;0.72;100.00;100316.13;6277570;28;20128;-71
2024/01/16 08:17:24;;;;;;;3.22;2.28;;;;;;;0.71;100.00;100325.63;6268567;28;20049;-72
2024/01/16 08:20:25;;;;;;;6.55;2.90;;;;;;;0.56;100.00;100319.91;6278428;28;20045;-72
2024/01/16 08:23:26;;;;;;;3.95;2.60;;;;;;;0.62;100.00;100325.81;6277688;28;20045;-71
2024/01/16 08:26:28;;;;;;;6.32;2.97;;;;;;;0.56;100.00;100318.19;6272845;28;20114;-72
2024/01/16 08:29:31;;;;;;;9.75;3.30;;;;;;;0.47;100.00;100326.97;6282293;28;20057;-73
2024/01/16 08:32:32;;;;;;;10.27;3.83;;;;;;;0.48;100.00;100326.06;6277153;28;20442;-73
2024/01/16 08:35:34;;;;;;;11.10;3.13;;;;;;;0.40;100.00;100329.69;6277106;28;20052;-73
2024/01/16 08:38:35;;;;;;;16.20;3.95;;;;;;;0.60;100.00;100326.75;6276056;28;20167;-72
2024/01/16 08:41:36;;;;;;;6.65;2.92;;;;;;;0.50;100.00;100321.75;6270642;28;20068;-74
2024/01/16 08:44:39;;;;;;;11.07;3.08;;;;;;;0.51;100.00;100335.53;6277023;28;20052;-73
2024/01/16 08:47:41;;;;;;;7.57;3.38;;;;;;;0.60;100.00;100327.59;6277037;28;20081;-73
2024/01/16 08:50:42;;;;;;;10.32;2.67;;;;;;;0.74;100.00;100327.31;6277601;28;20053;-73
2024/01/16 08:53:43;;;;;;;8.32;3.30;;;;;;;0.64;100.00;100329.22;6277100;28;20103;-74
2024/01/16 08:56:45;;;;;;;9.40;2.92;;;;;;;0.68;100.00;100330.00;6276219;28;20452;-74
2024/01/16 08:59:47;;;;;;;9.13;3.20;;;;;;;0.65;100.00;100330.94;6280380;22;20049;-74
2024/01/16 09:02:49;;;;;;;4.88;2.90;;;;;;;0.73;100.00;100331.63;6274705;28;20051;-73
2024/01/16 09:05:50;;;;;;;10.60;3.60;;;;;;;0.68;100.00;100332.59;6276586;28;20128;-72
2024/01/16 09:08:52;;;;;;;10.02;3.58;;;;;;;0.72;100.00;100342.00;6276622;28;20052;-72
2024/01/16 09:11:53;;;;;;;8.15;3.35;;;;;;;0.56;100.00;100338.00;6277229;28;20059;-72
2024/01/16 09:14:56;;;;;;;10.05;3.88;;;;;;;0.76;100.00;100338.47;6253186;28;20050;-73
2024/01/16 09:17:57;;;;;;;10.18;4.18;;;;;;;0.84;100.00;100340.91;6251628;28;20441;-73
2024/01/16 09:20:58;;;;;;;11.50;3.30;;;;;;;0.84;100.00;100338.31;6252138;28;20468;-74
2024/01/16 09:24:00;;;;;;;9.82;4.25;;;;;;;0.78;100.00;100328.97;6254988;28;20046;-73
2024/01/16 09:27:06;;;;;;;10.60;3.92;;;;;;;1.04;100.00;100336.16;6266813;28;20041;-74
2024/01/16 09:30:09;;;;;;;8.23;3.35;;;;;;;0.91;100.00;100332.13;6261236;28;20067;-72
2024/01/16 09:33:11;;;;;;;9.75;3.58;;;;;;;0.93;100.00;100341.56;6276454;28;20045;-73
2024/01/16 09:36:12;;;;;;;7.63;3.50;;;;;;;0.88;100.00;100342.56;6275542;28;20426;-73
2024/01/16 09:39:16;;;;;;;11.32;4.28;;;;;;;0.90;100.00;100333.88;6276456;28;20430;-73
2024/01/16 09:42:20;;;;;;;6.60;3.00;;;;;;;0.89;100.00;100339.09;6273962;28;20056;-73
2024/01/16 09:45:22;;;;;;;7.75;3.60;;;;;;;1.04;100.00;100330.16;6253562;28;20054;-73
2024/01/16 09:48:25;;;;;;;10.68;3.95;;;;;;;1.08;100.00;100340.41;6254721;28;20442;-73
2024/01/16 09:51:26;;;;;;;7.15;3.92;;;;;;;1.19;100.00;100333.28;6226956;28;20060;-73
2024/01/16 09:54:28;;;;;;;13.95;3.13;;;;;;;1.04;100.00;100335.31;6226532;28;20359;-73
2024/01/16 09:57:30;;;;;;;8.55;3.42;;;;;;;1.32;100.00;100330.41;6226129;28;20332;-72
2024/01/16 10:00:35;;;;;;;8.73;3.47;;;;;;;1.31;100.00;100332.13;6226452;28;20486;-72
2024/01/16 10:03:37;;;;;;;5.50;3.08;;;;;;;1.41;100.00;100330.19;6226637;28;20053;-73
2024/01/16 10:06:39;;;;;;;11.75;4.22;;;;;;;1.44;100.00;100336.16;6235212;28;20426;-74
2024/01/16 10:09:40;;;;;;;6.43;3.10;;;;;;;1.47;100.00;100337.84;6267248;28;20049;-74
2024/01/16 10:12:42;;;;;;;17.63;3.88;;;;;;;1.25;100.00;100329.69;6275771;28;20442;-75
2024/01/16 10:15:45;;;;;;;8.98;3.65;;;;;;;1.26;100.00;100333.97;6274707;28;20460;-75
2024/01/16 10:18:46;;;;;;;6.05;2.67;;;;;;;1.11;100.00;100324.81;6275703;28;20049;-75
2024/01/16 10:21:47;;;;;;;7.63;2.85;;;;;;;1.30;100.00;100329.59;6275515;28;20056;-74
2024/01/16 10:24:50;;;;;;;11.57;3.75;;;;;;;1.25;100.00;100333.13;6275390;28;20053;-75
2024/01/16 10:28:04;;;;;;;7.40;3.22;;;;;;;1.36;100.00;100337.22;6274898;28;20438;-75
2024/01/16 10:31:08;;;;;;;7.20;3.60;;;;;;;1.32;100.00;100332.97;6275254;28;20053;-76
2024/01/16 10:34:21;;;;;;;10.55;2.85;;;;;;;1.49;100.00;100331.72;6274936;28;20434;-75
2024/01/16 10:37:22;;;;;;;10.05;3.58;;;;;;;1.39;100.00;100332.81;6265828;28;20127;-75
2024/01/16 10:40:25;;;;;;;11.25;3.95;;;;;;;1.28;100.00;100329.63;6232363;28;20057;-76
2024/01/16 10:43:26;;;;;;;11.18;2.97;;;;;;;1.27;100.00;100330.50;6225211;28;20129;-75
2024/01/16 10:46:29;;;;;;;11.57;2.92;;;;;;;1.36;100.00;100343.25;6225167;28;20057;-75
2024/01/16 10:49:30;;;;;;;7.47;3.33;;;;;;;1.40;100.00;100342.28;6225399;28;20054;-75
2024/01/16 10:52:34;;;;;;;14.75;3.25;;;;;;;1.52;100.00;100341.16;6225682;28;20054;-75
2024/01/16 10:55:49;;;;;;;7.60;2.85;;;;;;;1.45;100.00;100342.19;6235186;28;20045;-75
2024/01/16 10:59:02;;;;;;;6.80;3.15;;;;;;;1.58;100.00;100335.00;6260197;28;20046;-74
2024/01/16 11:02:09;;;;;;;8.20;3.28;;;;;;;1.69;100.00;100341.63;6268850;28;20049;-75
2024/01/16 11:05:12;;;;;;;5.38;2.47;;;;;;;1.66;100.00;100340.84;6264717;28;20358;-75
2024/01/16 11:08:16;;;;;;;7.57;3.08;;;;;;;1.79;100.00;100339.69;6279014;28;20072;-75
2024/01/16 11:11:18;;;;;;;7.35;2.55;;;;;;;1.80;100.00;100338.78;6270500;28;20132;-75
2024/01/16 11:14:22;;;;;;;8.60;3.05;;;;;;;2.00;100.00;100344.34;6269076;28;20131;-74
2024/01/16 11:17:25;;;;;;;10.65;2.95;;;;;;;1.98;100.00;100340.94;6254628;28;20066;-75
2024/01/16 11:20:27;;;;;;;10.35;3.05;;;;;;;1.90;100.00;100342.84;6265549;28;20361;-76
2024/01/16 11:23:29;;;;;;;5.03;2.85;;;;;;;2.09;100.00;100352.75;6279487;28;20045;-74
2024/01/16 11:26:32;;;;;;;8.40;2.70;;;;;;;1.99;100.00;100350.41;6279082;28;20072;-75
2024/01/16 11:29:38;;;;;;;8.57;2.75;;;;;;;2.00;100.00;100346.94;6279708;28;20576;-75
2024/01/16 11:32:42;;;;;;;5.60;2.60;;;;;;;1.95;100.00;100348.78;6262100;28;20061;-74
2024/01/16 11:35:43;;;;;;;5.10;2.50;;;;;;;1.93;100.00;100353.16;6254375;28;20378;-75
2024/01/16 11:38:45;;;;;;;6.93;2.55;;;;;;;1.98;100.00;100361.66;6275934;28;20044;-75
2024/01/16 11:41:53;;;;;;;6.72;2.50;;;;;;;1.96;100.00;100363.44;6279476;28;20238;-74
2024/01/16 11:44:55;;;;;;;4.90;2.47;;;;;;;1.80;100.00;100359.50;6266754;28;20443;-78
2024/01/16 11:48:10;;;;;;;5.10;2.13;;;;;;;2.05;100.00;100364.97;6253880;28;20041;-74
2024/01/16 11:51:26;;;;;;;6.88;2.60;;;;;;;1.92;100.00;100355.78;6254303;28;20056;-74
2024/01/16 11:54:27;;;;;;;5.72;2.17;;;;;;;2.00;100.00;100351.28;6251600;28;20057;-73
2024/01/16 11:57:55;;;;;;;6.70;2.40;;;;;;;1.91;100.00;100352.34;6229045;28;20068;-74
2024/01/16 12:00:57;;;;;;;3.45;2.17;;;;;;;1.77;100.00;100360.44;6238262;28;20358;-75
2024/01/16 12:04:06;;;;;;;7.50;3.25;;;;;;;1.99;100.00;100349.53;6278409;28;20049;-75
2024/01/16 12:07:08;;;;;;;7.18;2.53;;;;;;;1.95;100.00;100353.97;6278035;28;20449;-75
2024/01/16 12:10:09;;;;;;;11.63;2.80;;;;;;;1.85;100.00;100352.47;6278374;28;20444;-74
2024/01/16 12:13:13;;;;;;;4.78;2.53;;;;;;;1.91;100.00;100343.72;6278394;28;20076;-75
2024/01/16 12:16:20;;;;;;;13.63;3.08;;;;;;;1.81;100.00;100355.19;6276430;28;20072;-75
2024/01/16 12:19:22;;;;;;;6.55;2.60;;;;;;;1.74;100.00;100354.47;6254289;28;20045;-74
2024/01/16 12:22:24;;;;;;;11.40;3.22;;;;;;;1.82;100.00;100349.97;6253019;28;20049;-74
2024/01/16 12:25:26;;;;;;;5.15;2.95;;;;;;;2.03;100.00;100340.81;6252957;28;20064;-75
2024/01/16 12:28:27;;;;;;;15.48;3.35;;;;;;;1.80;100.00;100341.38;6231085;28;20057;-76
2024/01/16 12:31:29;;;;;;;7.38;2.88;;;;;;;2.10;100.00;100349.31;6243766;28;20049;-75
2024/01/16 12:34:32;;;;;;;11.75;3.03;;;;;;;1.96;100.00;100332.34;6252838;28;20112;-75
2024/01/16 12:37:33;;;;;;;9.35;3.05;;;;;;;1.86;100.00;100335.19;6252036;28;20350;-75
2024/01/16 12:40:36;;;;;;;6.82;3.05;;;;;;;1.82;100.00;100324.06;6252971;28;20362;-75
2024/01/16 12:43:38;;;;;;;6.38;2.58;;;;;;;2.01;100.00;100327.06;6251591;28;20061;-75
2024/01/16 12:46:40;;;;;;;5.88;2.17;;;;;;;2.09;100.00;100317.34;6256429;28;20041;-75
2024/01/16 12:49:43;;;;;;;7.20;2.83;;;;;;;2.14;100.00;100317.25;6263733;28;20059;-75
2024/01/16 12:52:45;;;;;;;6.95;2.75;;;;;;;2.08;100.00;100313.03;6267866;28;20097;-75
2024/01/16 12:55:46;;;;;;;4.55;2.08;;;;;;;2.08;100.00;100310.44;6259500;28;20060;-75
2024/01/16 12:58:48;;;;;;;4.18;2.25;;;;;;;2.12;100.00;100306.88;6250554;28;20045;-75
2024/01/16 13:01:49;;;;;;;4.80;2.13;;;;;;;2.11;100.00;100310.38;6239899;28;20058;-76
2024/01/16 13:04:59;;;;;;;4.35;2.80;;;;;;;1.85;100.00;100300.66;6239800;28;20054;-76
2024/01/16 13:08:02;;;;;;;5.32;2.17;;;;;;;2.03;100.00;100307.97;6233229;28;20064;-75
2024/01/16 13:11:05;;;;;;;5.13;2.60;;;;;;;2.01;100.00;100298.56;6242678;28;20046;-75
2024/01/16 13:14:06;;;;;;;5.55;2.47;;;;;;;2.13;100.00;100307.72;6238893;28;21057;-75
2024/01/16 13:17:08;;;;;;;5.50;2.88;;;;;;;2.18;100.00;100308.47;6257707;28;20598;-75
2024/01/16 13:20:14;;;;;;;5.53;2.30;;;;;;;2.11;100.00;100305.19;6240538;28;20357;-75
2024/01/16 13:23:16;;;;;;;4.70;2.25;;;;;;;2.16;100.00;100312.84;6267311;28;20057;-75
2024/01/16 13:26:17;;;;;;;13.35;3.15;;;;;;;2.02;100.00;100301.09;6267833;28;20059;-80
2024/01/16 13:29:19;;;;;;;9.05;3.00;;;;;;;1.91;100.00;100307.44;6260705;28;20064;-74
2024/01/16 13:32:20;;;;;;;4.53;2.47;;;;;;;1.82;100.00;100297.28;6256999;28;20066;-75
2024/01/16 13:35:23;;;;;;;9.88;2.97;;;;;;;1.95;100.00;100298.69;6267645;28;20045;-76
2024/01/16 13:38:24;;;;;;;4.57;2.78;;;;;;;1.82;100.00;100292.09;6270019;28;20045;-75
2024/01/16 13:41:27;;;;;;;5.45;3.15;;;;;;;1.95;100.00;100296.97;6276131;28;20084;-78
2024/01/16 13:44:28;;;;;;;9.05;3.50;;;;;;;1.89;100.00;100289.34;6271405;28;20404;-76
2024/01/16 13:47:30;;;;;;;8.43;3.05;;;;;;;2.06;100.00;100288.91;6246012;28;20331;-74
2024/01/16 13:50:33;;;;;;;10.43;3.22;;;;;;;2.05;100.00;100292.41;6254620;28;20044;-75
2024/01/16 13:53:35;;;;;;;4.93;2.67;;;;;;;1.91;100.00;100286.72;6267537;28;20144;-74
2024/01/16 13:56:37;;;;;;;5.85;2.85;;;;;;;1.97;100.00;100287.41;6271255;28;20089;-74
2024/01/16 13:59:38;;;;;;;6.25;2.67;;;;;;;2.00;100.00;100295.13;6251201;28;20058;-75
2024/01/16 14:02:40;;;;;;;9.32;3.30;;;;;;;1.88;100.00;100279.88;6252953;28;20045;-73
2024/01/16 14:05:43;;;;;;;5.35;2.95;;;;;;;1.87;100.00;100277.31;6241002;28;20476;-74